Time;durP1;ratioP1;P1;durP2;ratioP2;P2;SDS_P1;SDS_P2;PMS_P1;PMS_P2;Temp;Humidity;BMP_temperature;BMP_pressure;BME280_temperature;BME280_humidity;BME280_pressure;Samples;Min_cycle;Max_cycle;Signal;HPM_P1;HPM_P2
2023/05/28 00:01:29;;;;;;;9.52;5.13;;;;;;;12.41;85.78;101436.47;4923827;29;20048;-81
2023/05/28 00:03:56;;;;;;;15.48;6.00;;;;;;;12.40;86.00;101432.13;4903161;29;20063;-82
2023/05/28 00:06:23;;;;;;;12.45;5.88;;;;;;;12.35;86.04;101429.50;4901137;29;20051;-81
2023/05/28 00:08:51;;;;;;;11.57;6.45;;;;;;;12.33;86.57;101431.28;4920009;29;20095;-82
2023/05/28 00:11:21;;;;;;;8.88;5.72;;;;;;;12.28;86.19;101426.91;4905188;29;20071;-80
2023/05/28 00:13:48;;;;;;;8.73;6.10;;;;;;;12.24;86.43;101421.69;4919950;29;20040;-81
2023/05/28 00:16:15;;;;;;;11.70;6.57;;;;;;;12.22;86.54;101419.94;4929296;29;20068;-82
2023/05/28 00:18:41;;;;;;;14.88;5.45;;;;;;;12.19;86.74;101425.19;4901887;29;20047;-80
2023/05/28 00:21:08;;;;;;;15.30;5.60;;;;;;;12.15;86.72;101418.19;4901183;29;20051;-82
2023/05/28 00:23:34;;;;;;;9.13;5.70;;;;;;;12.12;86.64;101428.72;4912181;29;20043;-81
2023/05/28 00:26:01;;;;;;;9.98;5.90;;;;;;;12.09;86.42;101421.72;4913037;29;20123;-81
2023/05/28 00:28:28;;;;;;;12.85;5.40;;;;;;;12.07;86.59;101418.22;4888903;29;20055;-80
2023/05/28 00:30:55;;;;;;;12.07;6.50;;;;;;;12.07;86.91;101415.59;4905824;29;20048;-81
2023/05/28 00:33:23;;;;;;;10.15;6.03;;;;;;;12.06;86.88;101419.13;4911537;28;20053;-80
2023/05/28 00:35:54;;;;;;;7.07;5.07;;;;;;;12.05;86.49;101418.22;4921926;29;20048;-80
2023/05/28 00:38:22;;;;;;;4.72;4.20;;;;;;;12.05;86.37;101423.47;4905830;29;20052;-80
2023/05/28 00:40:49;;;;;;;13.73;5.50;;;;;;;12.01;86.81;101420.88;4921860;29;20043;-90
2023/05/28 00:43:16;;;;;;;11.60;5.63;;;;;;;12.02;87.23;101422.59;4925601;29;20054;-81
2023/05/28 00:45:43;;;;;;;6.50;5.18;;;;;;;12.06;87.25;101419.13;4927356;29;20056;-81
2023/05/28 00:48:11;;;;;;;7.68;5.07;;;;;;;12.06;86.98;101416.50;4919879;29;20072;-81
2023/05/28 00:50:39;;;;;;;9.00;5.53;;;;;;;12.03;87.17;101412.13;4928091;29;20091;-81
2023/05/28 00:53:06;;;;;;;10.38;5.35;;;;;;;11.99;87.33;101409.50;4918838;29;20145;-85
2023/05/28 00:55:32;;;;;;;11.40;5.55;;;;;;;11.93;87.87;101407.75;4927468;29;20071;-81
2023/05/28 00:58:05;;;;;;;13.20;5.95;;;;;;;11.91;87.46;101393.75;4934382;29;20576;-81
2023/05/28 01:00:33;;;;;;;6.57;5.25;;;;;;;11.88;87.22;101394.63;4920085;29;20134;-81
2023/05/28 01:03:00;;;;;;;11.20;5.68;;;;;;;11.85;87.21;101392.03;4918845;29;20044;-81
2023/05/28 01:05:26;;;;;;;7.85;5.47;;;;;;;11.83;88.14;101398.16;4911115;29;20047;-81
2023/05/28 01:07:53;;;;;;;9.18;5.60;;;;;;;11.77;88.54;101392.91;4919538;29;20051;-81
2023/05/28 01:10:20;;;;;;;7.78;5.55;;;;;;;11.74;88.51;101393.78;4910776;29;20122;-81
2023/05/28 01:12:46;;;;;;;11.27;5.47;;;;;;;11.70;89.28;101392.91;4903187;29;20402;-82
2023/05/28 01:15:13;;;;;;;11.82;6.30;;;;;;;11.67;90.13;101390.31;4912198;29;20558;-81
2023/05/28 01:17:40;;;;;;;7.95;5.28;;;;;;;11.63;90.06;101390.28;4913003;29;20048;-81
2023/05/28 01:20:11;;;;;;;8.10;5.57;;;;;;;11.58;90.92;101393.81;4933133;29;20044;-83
2023/05/28 01:22:39;;;;;;;9.65;6.20;;;;;;;11.55;92.07;101398.19;4907273;29;20409;-84
2023/05/28 01:25:09;;;;;;;9.88;6.13;;;;;;;11.53;92.45;101398.19;4914266;29;20553;-89
2023/05/28 01:27:40;;;;;;;8.52;5.85;;;;;;;11.51;93.17;101399.06;4920826;29;20089;-80
2023/05/28 01:30:10;;;;;;;12.13;6.00;;;;;;;11.46;93.14;101399.06;4904389;29;20043;-87
2023/05/28 01:32:37;;;;;;;8.32;5.53;;;;;;;11.41;93.10;101406.94;4906370;29;20106;-82
2023/05/28 01:35:06;;;;;;;12.38;6.75;;;;;;;11.37;93.65;101399.09;4921266;29;20046;-81
2023/05/28 01:37:37;;;;;;;10.95;6.82;;;;;;;11.33;93.76;101406.06;4906209;29;20040;-82
2023/05/28 01:40:07;;;;;;;10.15;5.68;;;;;;;11.28;94.27;101399.94;4903088;29;20039;-84
2023/05/28 01:42:35;;;;;;;8.68;6.40;;;;;;;11.23;95.05;101399.06;4925184;29;20067;-85
2023/05/28 01:45:05;;;;;;;10.43;6.95;;;;;;;11.16;94.98;101402.56;4913359;29;20040;-83
2023/05/28 01:47:32;;;;;;;14.50;7.65;;;;;;;11.12;95.95;101390.31;4910563;29;20478;-84
2023/05/28 01:49:59;;;;;;;20.77;8.63;;;;;;;11.05;96.41;101386.81;4912366;29;20072;-81
2023/05/28 01:52:25;;;;;;;11.57;7.03;;;;;;;11.01;96.62;101383.31;4913286;29;20082;-83
2023/05/28 01:54:52;;;;;;;11.63;6.88;;;;;;;10.93;98.21;101383.31;4902191;29;20439;-84
2023/05/28 01:57:18;;;;;;;14.48;6.95;;;;;;;10.86;98.51;101376.34;4896999;29;20047;-81
2023/05/28 01:59:45;;;;;;;11.73;6.53;;;;;;;10.82;99.04;101374.59;4929678;29;20535;-80
2023/05/28 02:02:12;;;;;;;18.67;6.78;;;;;;;10.73;99.60;101382.44;4902823;29;20074;-84
2023/05/28 02:04:38;;;;;;;11.23;6.90;;;;;;;10.68;100.00;101371.06;4903152;29;20048;-82
2023/05/28 02:07:05;;;;;;;15.18;7.45;;;;;;;10.62;100.00;101374.53;4910016;29;20051;-82
2023/05/28 02:09:33;;;;;;;15.07;7.53;;;;;;;10.62;100.00;101385.00;4918606;29;20050;-82
2023/05/28 02:12:02;;;;;;;11.48;6.53;;;;;;;10.60;100.00;101381.53;4918706;29;20048;-81
2023/05/28 02:14:30;;;;;;;10.85;7.20;;;;;;;10.59;100.00;101377.16;4918787;29;20051;-81
2023/05/28 02:16:56;;;;;;;8.75;6.75;;;;;;;10.60;100.00;101384.16;4913944;29;20107;-80
2023/05/28 02:19:24;;;;;;;11.95;7.18;;;;;;;10.58;100.00;101378.00;4918453;29;20047;-81
2023/05/28 02:21:51;;;;;;;10.43;6.78;;;;;;;10.58;100.00;101385.88;4927452;29;20070;-81
2023/05/28 02:24:17;;;;;;;11.13;6.80;;;;;;;10.59;100.00;101375.41;4907055;29;20047;-81
2023/05/28 02:26:47;;;;;;;12.63;6.75;;;;;;;10.61;100.00;101377.16;4926972;29;20044;-81
2023/05/28 02:29:13;;;;;;;11.77;7.45;;;;;;;10.58;100.00;101372.78;4904182;29;20135;-81
2023/05/28 02:32:00;;;;;;;15.13;7.88;;;;;;;10.56;100.00;101387.63;4906415;29;20157;-81
2023/05/28 02:34:28;;;;;;;13.10;6.10;;;;;;;10.54;100.00;101390.22;4902557;29;20048;-81
2023/05/28 02:36:55;;;;;;;9.68;6.60;;;;;;;10.54;100.00;101389.34;4886407;29;20063;-81
2023/05/28 02:39:23;;;;;;;12.02;7.32;;;;;;;10.54;100.00;101384.13;4901999;29;20047;-80
2023/05/28 02:41:49;;;;;;;15.80;6.82;;;;;;;10.53;100.00;101385.88;4903165;29;20074;-81
2023/05/28 02:44:16;;;;;;;12.38;7.35;;;;;;;10.48;100.00;101382.38;4903194;29;20513;-80
2023/05/28 02:46:42;;;;;;;10.32;6.15;;;;;;;10.48;100.00;101386.72;4887360;29;20048;-81
2023/05/28 02:49:08;;;;;;;12.13;6.72;;;;;;;10.49;100.00;101386.72;4902950;29;20048;-81
2023/05/28 02:51:35;;;;;;;8.40;5.95;;;;;;;10.50;100.00;101382.38;4902280;29;20048;-81
2023/05/28 02:54:02;;;;;;;8.43;5.72;;;;;;;10.51;100.00;101384.97;4903084;29;20522;-80
2023/05/28 02:56:28;;;;;;;13.05;6.50;;;;;;;10.49;100.00;101378.00;4887284;29;20134;-80
2023/05/28 02:58:55;;;;;;;12.38;7.68;;;;;;;10.45;100.00;101379.72;4905928;29;20114;-81
2023/05/28 03:01:21;;;;;;;14.43;7.28;;;;;;;10.40;100.00;101378.84;4903610;29;20036;-81
2023/05/28 03:03:48;;;;;;;13.30;7.65;;;;;;;10.34;100.00;101382.28;4902781;29;20507;-80
2023/05/28 03:06:14;;;;;;;11.02;6.80;;;;;;;10.31;100.00;101376.16;4902377;29;20048;-82
2023/05/28 03:08:41;;;;;;;10.55;6.18;;;;;;;10.26;100.00;101381.38;4918231;29;20095;-81
2023/05/28 03:11:08;;;;;;;10.25;7.57;;;;;;;10.27;100.00;101375.25;4902238;29;20179;-81
2023/05/28 03:13:34;;;;;;;7.53;5.68;;;;;;;10.26;100.00;101379.63;4902609;29;20075;-81
2023/05/28 03:16:01;;;;;;;12.25;6.97;;;;;;;10.24;100.00;101375.25;4884424;29;20049;-80
2023/05/28 03:18:30;;;;;;;12.65;6.60;;;;;;;10.22;100.00;101371.75;4896101;29;20044;-80
2023/05/28 03:20:57;;;;;;;11.30;6.68;;;;;;;10.21;100.00;101373.50;4889906;29;20040;-81
2023/05/28 03:23:25;;;;;;;11.70;6.60;;;;;;;10.25;100.00;101374.41;4886715;29;20112;-81
2023/05/28 03:25:52;;;;;;;11.52;7.47;;;;;;;10.27;100.00;101377.88;4902009;29;20103;-81
2023/05/28 03:28:18;;;;;;;12.63;7.07;;;;;;;10.26;100.00;101371.78;4902047;29;20108;-82
2023/05/28 03:30:48;;;;;;;9.93;7.15;;;;;;;10.24;100.00;101376.13;4917932;29;20048;-82
2023/05/28 03:33:15;;;;;;;13.95;7.90;;;;;;;10.23;100.00;101370.88;4902206;29;20108;-81
2023/05/28 03:35:41;;;;;;;10.82;7.97;;;;;;;10.23;100.00;101370.88;4909765;29;20051;-81
2023/05/28 03:38:10;;;;;;;13.52;7.47;;;;;;;10.23;100.00;101373.50;4903835;29;20136;-85
2023/05/28 03:40:37;;;;;;;9.60;6.43;;;;;;;10.23;100.00;101373.50;4893428;29;20399;-82
2023/05/28 03:43:05;;;;;;;12.07;7.32;;;;;;;10.19;100.00;101375.22;4901812;29;20040;-82
2023/05/28 03:45:31;;;;;;;15.85;7.68;;;;;;;10.18;100.00;101375.22;4903680;29;20056;-82
2023/05/28 03:47:58;;;;;;;14.65;7.63;;;;;;;10.18;100.00;101375.22;4886637;29;20055;-83
2023/05/28 03:50:24;;;;;;;12.07;6.82;;;;;;;10.12;100.00;101373.47;4869862;29;20111;-83
2023/05/28 03:52:54;;;;;;;11.10;6.85;;;;;;;10.08;100.00;101367.34;4887528;29;20492;-84
2023/05/28 03:55:21;;;;;;;13.70;6.43;;;;;;;10.07;100.00;101367.34;4885017;29;20049;-83
2023/05/28 03:57:47;;;;;;;12.40;6.93;;;;;;;10.09;100.00;101379.56;4917388;29;20044;-82
2023/05/28 04:00:15;;;;;;;14.18;6.97;;;;;;;10.13;100.00;101370.00;4917480;29;20408;-81
2023/05/28 04:02:42;;;;;;;12.43;7.80;;;;;;;10.17;100.00;101378.69;4907653;29;20071;-82
2023/05/28 04:05:09;;;;;;;16.58;7.70;;;;;;;10.18;100.00;101375.22;4885168;29;20040;-82
2023/05/28 04:07:36;;;;;;;10.18;6.90;;;;;;;10.18;100.00;101372.59;4894291;29;20040;-82
2023/05/28 04:10:02;;;;;;;13.60;6.93;;;;;;;10.21;100.00;101381.34;4901733;29;20048;-80
2023/05/28 04:12:29;;;;;;;13.40;7.72;;;;;;;10.25;100.00;101377.88;4900912;29;20130;-81
2023/05/28 04:14:56;;;;;;;11.48;6.85;;;;;;;10.28;100.00;101379.63;4901065;29;20558;-82
2023/05/28 04:17:23;;;;;;;12.63;7.07;;;;;;;10.33;100.00;101379.66;4901013;29;20457;-80
2023/05/28 04:19:51;;;;;;;13.60;7.43;;;;;;;10.36;100.00;101383.16;4903034;29;20483;-81
2023/05/28 04:22:17;;;;;;;11.20;7.43;;;;;;;10.43;100.00;101386.72;4901283;29;20472;-80
2023/05/28 04:24:48;;;;;;;8.48;6.85;;;;;;;10.48;100.00;101381.47;4907492;29;20076;-81
2023/05/28 04:27:15;;;;;;;8.02;6.40;;;;;;;10.54;100.00;101378.88;4916806;29;20048;-81
2023/05/28 04:29:42;;;;;;;12.80;6.70;;;;;;;10.56;100.00;101377.16;4901323;29;20113;-81
2023/05/28 04:32:09;;;;;;;13.52;6.25;;;;;;;10.63;100.00;101383.28;4885444;29;20128;-82
2023/05/28 04:34:36;;;;;;;10.93;5.68;;;;;;;10.72;100.00;101383.28;4873664;29;20063;-81
2023/05/28 04:37:04;;;;;;;9.65;6.60;;;;;;;10.80;100.00;101378.94;4885023;29;20107;-82
2023/05/28 04:39:31;;;;;;;11.45;6.55;;;;;;;10.86;100.00;101384.19;4901197;29;20373;-81
2023/05/28 04:41:59;;;;;;;12.38;6.57;;;;;;;10.91;100.00;101379.84;4894412;29;20045;-81
2023/05/28 04:44:26;;;;;;;9.20;6.32;;;;;;;10.96;100.00;101377.22;4893217;29;20571;-80
2023/05/28 04:46:53;;;;;;;11.80;7.80;;;;;;;11.02;100.00;101384.22;4901458;29;20048;-81
2023/05/28 04:49:19;;;;;;;8.00;5.72;;;;;;;11.07;100.00;101388.56;4900625;29;20044;-81
2023/05/28 04:51:48;;;;;;;11.23;6.63;;;;;;;11.16;100.00;101384.22;4884955;29;20151;-81
2023/05/28 04:54:15;;;;;;;9.52;5.22;;;;;;;11.21;100.00;101380.72;4875027;29;20441;-81
2023/05/28 04:56:41;;;;;;;7.97;5.35;;;;;;;11.23;100.00;101368.50;4914692;29;20044;-81
2023/05/28 04:59:09;;;;;;;6.90;5.88;;;;;;;11.32;100.00;101382.47;4887740;29;20440;-81
2023/05/28 05:01:38;;;;;;;12.10;6.18;;;;;;;11.37;100.00;101385.97;4901447;29;20100;-81
2023/05/28 05:04:06;;;;;;;6.93;5.50;;;;;;;11.46;100.00;101388.59;4893239;29;20040;-81
2023/05/28 05:06:33;;;;;;;12.27;5.57;;;;;;;11.49;100.00;101378.09;4908181;29;20099;-83
2023/05/28 05:09:04;;;;;;;9.50;5.38;;;;;;;11.54;100.00;101392.06;4904320;29;20044;-81
2023/05/28 05:11:31;;;;;;;8.65;5.40;;;;;;;11.59;100.00;101392.94;4934820;29;20491;-83
2023/05/28 05:13:58;;;;;;;7.70;5.55;;;;;;;11.65;100.00;101393.81;4901636;29;20052;-81
2023/05/28 05:16:25;;;;;;;7.60;4.63;;;;;;;11.72;100.00;101391.16;4918678;29;20051;-81
2023/05/28 05:18:51;;;;;;;5.90;4.22;;;;;;;11.81;100.00;101395.53;4903615;29;20515;-82
2023/05/28 05:21:21;;;;;;;8.95;4.88;;;;;;;11.88;100.00;101402.50;4884888;29;20484;-85
2023/05/28 05:23:49;;;;;;;6.32;4.70;;;;;;;11.94;100.00;101398.97;4897006;29;20098;-81
2023/05/28 05:26:17;;;;;;;6.43;5.15;;;;;;;11.99;100.00;101401.63;4882504;29;20045;-81
2023/05/28 05:28:45;;;;;;;6.07;4.53;;;;;;;12.05;100.00;101401.63;4915516;29;20056;-81
2023/05/28 05:31:12;;;;;;;9.35;4.80;;;;;;;12.12;100.00;101399.84;4900332;29;20048;-81
2023/05/28 05:33:39;;;;;;;7.15;5.03;;;;;;;12.19;99.88;101391.94;4915838;29;20099;-82
2023/05/28 05:36:06;;;;;;;7.60;5.40;;;;;;;12.27;99.48;101389.28;4897962;29;20036;-85
2023/05/28 05:38:33;;;;;;;9.73;5.25;;;;;;;12.36;99.01;101393.66;4884325;29;20056;-81
2023/05/28 05:41:01;;;;;;;5.70;4.30;;;;;;;12.45;98.40;101398.84;4911195;29;20055;-81
2023/05/28 05:43:28;;;;;;;8.52;5.00;;;;;;;12.55;97.92;101402.28;4894684;29;20044;-81
2023/05/28 05:45:54;;;;;;;15.52;5.93;;;;;;;12.61;96.69;101398.78;4905976;29;20036;-82
2023/05/28 05:48:21;;;;;;;6.55;3.83;;;;;;;12.66;96.16;101396.97;4899326;29;20060;-81
2023/05/28 05:50:51;;;;;;;10.18;5.07;;;;;;;12.72;95.38;101397.81;4898611;29;20051;-80
2023/05/28 05:53:18;;;;;;;6.50;4.38;;;;;;;12.81;94.91;101396.03;4897912;29;20048;-82
2023/05/28 05:55:45;;;;;;;6.45;5.15;;;;;;;12.86;94.69;101396.84;4899751;29;20051;-91
2023/05/28 05:58:15;;;;;;;9.68;5.13;;;;;;;12.93;94.72;101403.81;4899614;29;20452;-82
2023/05/28 06:00:43;;;;;;;10.82;5.07;;;;;;;13.02;94.52;101395.88;4892675;29;20051;-81
2023/05/28 06:03:10;;;;;;;12.02;5.63;;;;;;;13.11;93.55;101391.44;4898629;29;20078;-81
2023/05/28 06:05:36;;;;;;;10.63;5.90;;;;;;;13.18;93.28;101390.47;4926555;29;20606;-83
2023/05/28 06:08:03;;;;;;;5.40;4.85;;;;;;;13.24;92.70;101393.06;4891071;29;20133;-85
2023/05/28 06:10:30;;;;;;;12.27;5.47;;;;;;;13.32;92.02;101393.88;4914975;29;20112;-83
2023/05/28 06:13:00;;;;;;;6.30;4.35;;;;;;;13.42;91.52;101393.84;4885966;29;20071;-82
2023/05/28 06:15:28;;;;;;;9.10;5.35;;;;;;;13.53;91.16;101386.72;4892426;29;20423;-86
2023/05/28 06:17:56;;;;;;;6.63;4.00;;;;;;;13.64;90.10;101392.75;4886933;29;20104;-81
2023/05/28 06:20:23;;;;;;;11.95;5.95;;;;;;;13.72;89.54;101393.53;4918649;29;20063;-82
2023/05/28 06:22:49;;;;;;;8.30;5.43;;;;;;;13.83;88.49;101387.28;4903076;29;20044;-80
2023/05/28 06:25:16;;;;;;;8.80;6.03;;;;;;;13.94;86.94;101388.06;4899094;29;20033;-81
2023/05/28 06:27:44;;;;;;;9.32;5.03;;;;;;;14.01;86.82;101386.22;4899020;29;20127;-80
2023/05/28 06:30:11;;;;;;;11.40;5.55;;;;;;;14.11;86.18;101387.00;4889262;29;20059;-81
2023/05/28 06:32:37;;;;;;;10.40;5.22;;;;;;;14.22;85.45;101385.97;4885661;29;20196;-80
2023/05/28 06:35:04;;;;;;;13.38;4.70;;;;;;;14.26;84.89;101384.16;4884156;29;20105;-81
2023/05/28 06:37:30;;;;;;;11.38;5.18;;;;;;;14.30;84.98;101390.25;4884694;29;20072;-81
2023/05/28 06:39:57;;;;;;;9.70;4.93;;;;;;;14.34;84.25;101390.22;4892238;29;20051;-82
2023/05/28 06:42:23;;;;;;;8.50;4.63;;;;;;;14.45;83.96;101391.84;4874964;29;20127;-81
2023/05/28 06:44:50;;;;;;;8.80;5.35;;;;;;;14.55;83.31;101396.09;4902234;29;20044;-85
2023/05/28 06:47:16;;;;;;;12.75;5.32;;;;;;;14.64;82.62;101387.19;4894403;29;20052;-81
2023/05/28 06:49:43;;;;;;;9.65;4.88;;;;;;;14.76;82.04;101394.94;4897565;29;20049;-82
2023/05/28 06:52:09;;;;;;;10.15;5.03;;;;;;;14.88;81.06;101399.16;4891822;29;20051;-81
2023/05/28 06:54:36;;;;;;;12.15;5.53;;;;;;;14.99;80.78;101401.63;4895950;29;20041;-85
2023/05/28 06:57:02;;;;;;;7.80;4.97;;;;;;;15.06;79.77;101400.66;4896538;29;20048;-85
2023/05/28 06:59:30;;;;;;;5.50;3.70;;;;;;;15.15;79.51;101400.50;4890176;29;20063;-87
2023/05/28 07:01:56;;;;;;;10.70;4.65;;;;;;;15.25;78.00;101403.84;4915723;29;20096;-90
2023/05/28 07:04:22;;;;;;;10.10;4.75;;;;;;;15.36;77.42;101398.41;4894717;29;20043;-83
2023/05/28 07:06:49;;;;;;;6.85;5.15;;;;;;;15.46;77.25;101393.84;4877668;29;20116;-84
2023/05/28 07:09:16;;;;;;;7.53;5.03;;;;;;;15.61;76.95;101388.28;4902639;29;20142;-84
2023/05/28 07:11:43;;;;;;;10.20;6.00;;;;;;;15.83;74.62;101398.50;4894286;29;20068;-80
2023/05/28 07:14:09;;;;;;;9.45;4.78;;;;;;;16.06;71.28;101391.88;4895802;29;20116;-81
2023/05/28 07:16:36;;;;;;;9.00;4.20;;;;;;;16.45;71.24;101391.97;4874010;29;20654;-81
2023/05/28 07:19:02;;;;;;;8.73;4.68;;;;;;;16.97;68.85;101390.81;4873997;29;20091;-85
2023/05/28 07:21:29;;;;;;;12.18;5.28;;;;;;;17.56;65.81;101399.06;4886693;29;20048;-81
2023/05/28 07:23:56;;;;;;;5.88;3.40;;;;;;;18.25;62.42;101397.19;4873931;29;20041;-80
2023/05/28 07:26:22;;;;;;;10.15;5.70;;;;;;;18.92;60.89;101387.25;4886202;29;20543;-81
2023/05/28 07:28:49;;;;;;;6.72;4.03;;;;;;;19.63;58.32;101391.06;4889715;29;20388;-81
2023/05/28 07:31:15;;;;;;;7.93;3.03;;;;;;;20.39;55.71;101388.31;4902800;29;20044;-81
2023/05/28 07:33:42;;;;;;;7.82;3.92;;;;;;;20.93;51.26;101386.22;4901847;29;20136;-81
2023/05/28 07:36:08;;;;;;;4.82;3.33;;;;;;;21.29;45.96;101388.28;4900517;29;20040;-81
2023/05/28 07:38:35;;;;;;;5.32;3.15;;;;;;;21.43;44.82;101379.72;4890797;29;20060;-83
2023/05/28 07:41:01;;;;;;;6.03;3.42;;;;;;;21.89;42.99;101379.53;4901920;29;20558;-92
2023/05/28 07:43:28;;;;;;;9.70;4.75;;;;;;;22.21;43.41;101373.66;4897865;29;20494;-81
2023/05/28 07:45:54;;;;;;;7.03;2.90;;;;;;;22.57;42.69;101388.91;4894554;29;20048;-81
2023/05/28 07:48:21;;;;;;;6.50;3.42;;;;;;;22.82;38.65;101375.22;4898833;29;20045;-81
2023/05/28 07:50:47;;;;;;;5.95;3.08;;;;;;;23.28;39.50;101382.75;4913313;29;20051;-81
2023/05/28 07:53:14;;;;;;;4.57;2.00;;;;;;;23.37;38.21;101378.75;4881644;29;20048;-84
2023/05/28 07:55:40;;;;;;;4.32;2.50;;;;;;;23.39;37.21;101380.41;4896577;29;20040;-82
2023/05/28 07:58:07;;;;;;;3.58;2.70;;;;;;;23.96;37.38;101376.56;4904865;29;20051;-86
2023/05/28 08:00:36;;;;;;;6.15;4.90;;;;;;;24.45;36.71;101368.53;4900150;29;20036;-81
2023/05/28 08:03:03;;;;;;;4.18;3.05;;;;;;;25.01;36.06;101368.06;4899150;29;20056;-87
2023/05/28 08:05:30;;;;;;;4.50;2.70;;;;;;;25.53;34.13;101365.97;4877772;29;20063;-81
2023/05/28 08:07:57;;;;;;;5.38;3.20;;;;;;;25.84;34.33;101369.41;4883263;29;20054;-81
2023/05/28 08:10:23;;;;;;;9.10;4.15;;;;;;;26.13;31.04;101367.63;4924869;29;20048;-82
2023/05/28 08:12:50;;;;;;;2.97;2.30;;;;;;;26.19;31.88;101372.63;4910135;29;20048;-82
2023/05/28 08:15:16;;;;;;;4.30;2.58;;;;;;;26.81;31.65;101363.28;4881831;29;20135;-87
2023/05/28 08:17:43;;;;;;;2.03;1.83;;;;;;;27.22;31.09;101366.81;4891392;29;20155;-86
2023/05/28 08:20:11;;;;;;;7.28;3.15;;;;;;;27.72;30.42;101365.16;4895862;29;20050;-84
2023/05/28 08:22:39;;;;;;;3.10;2.50;;;;;;;28.03;27.13;101362.16;4907863;29;20108;-82
2023/05/28 08:25:06;;;;;;;5.00;2.10;;;;;;;27.49;27.10;101363.25;4896441;29;20072;-84
2023/05/28 08:27:32;;;;;;;2.90;2.17;;;;;;;27.21;28.04;101363.28;4891932;29;20106;-87
2023/05/28 08:29:59;;;;;;;4.22;3.65;;;;;;;27.49;26.78;101365.94;4882377;29;20044;-82
2023/05/28 08:32:25;;;;;;;4.88;3.10;;;;;;;27.80;26.70;101372.69;4887679;29;20055;-81
2023/05/28 08:34:54;;;;;;;5.97;2.63;;;;;;;28.33;25.77;101353.69;4898999;29;20052;-81
2023/05/28 08:37:21;;;;;;;2.45;1.80;;;;;;;28.74;24.98;101359.72;4897657;29;20044;-81
2023/05/28 08:39:48;;;;;;;4.18;2.03;;;;;;;29.18;25.05;101362.72;4894392;29;20059;-84
2023/05/28 08:42:15;;;;;;;2.75;1.35;;;;;;;29.26;23.10;101362.97;4895451;29;20399;-85
2023/05/28 08:44:41;;;;;;;5.55;1.95;;;;;;;28.19;22.79;101361.94;4892911;29;20551;-83
2023/05/28 08:47:11;;;;;;;4.90;4.32;;;;;;;28.53;23.32;101360.28;4877709;29;20048;-83
2023/05/28 08:49:54;;;;;;;1.55;1.45;;;;;;;28.88;22.24;101358.69;4894132;29;20046;-84
2023/05/28 08:52:21;;;;;;;4.53;2.08;;;;;;;29.37;22.34;101363.03;4906549;29;20118;-84
2023/05/28 08:54:51;;;;;;;4.82;3.08;;;;;;;28.96;22.91;101367.03;4896791;29;20068;-83
2023/05/28 08:57:20;;;;;;;3.60;1.77;;;;;;;28.41;21.97;101360.34;4894588;29;20059;-80
2023/05/28 08:59:51;;;;;;;1.75;1.65;;;;;;;28.63;21.99;101362.31;4896568;29;20051;-89
2023/05/28 09:02:27;;;;;;;2.08;1.67;;;;;;;29.26;20.66;101362.13;4896886;29;20052;-81
2023/05/28 09:04:56;;;;;;;1.90;1.48;;;;;;;30.02;21.12;101362.50;4895724;29;20036;-81
2023/05/28 09:07:26;;;;;;;1.55;1.42;;;;;;;31.15;20.91;101358.69;4892226;29;20127;-87
2023/05/28 09:09:53;;;;;;;1.55;1.48;;;;;;;31.36;20.24;101353.25;4894860;29;20056;-83
2023/05/28 09:12:26;;;;;;;4.10;2.38;;;;;;;29.89;21.08;101362.63;4879696;29;20484;-89
2023/05/28 09:14:54;;;;;;;4.47;1.85;;;;;;;30.10;21.69;101346.53;4909675;29;20095;-83
2023/05/28 09:17:38;;;;;;;2.13;1.88;;;;;;;30.27;21.70;101357.81;4895265;29;20544;-81
2023/05/28 09:20:16;;;;;;;2.42;2.22;;;;;;;30.19;21.76;101362.00;4904589;29;20547;-83
2023/05/28 09:22:44;;;;;;;2.25;2.05;;;;;;;29.63;22.41;101359.25;4875245;29;20056;-84
2023/05/28 09:25:11;;;;;;;2.55;2.30;;;;;;;29.05;22.93;101347.47;4897120;29;20044;-81
2023/05/28 09:27:38;;;;;;;3.55;2.15;;;;;;;29.32;23.02;101343.66;4894212;29;20056;-84
2023/05/28 09:30:10;;;;;;;4.28;2.03;;;;;;;30.00;22.33;101349.13;4908611;29;20047;-86
2023/05/28 09:32:40;;;;;;;4.22;1.90;;;;;;;31.45;20.88;101341.63;4900609;29;20088;-84
2023/05/28 09:35:08;;;;;;;3.40;2.17;;;;;;;32.06;20.01;101347.19;4886053;29;20048;-83
2023/05/28 09:37:39;;;;;;;3.30;1.80;;;;;;;32.61;20.04;101342.22;4891011;29;20605;-91
2023/05/28 09:40:09;;;;;;;2.10;1.92;;;;;;;33.50;19.40;101344.91;4891468;29;20056;-93
2023/05/28 09:42:41;;;;;;;2.80;1.83;;;;;;;34.66;18.64;101328.16;4889417;29;20040;-85
2023/05/28 09:45:11;;;;;;;1.90;1.50;;;;;;;35.39;18.33;101332.50;4897347;29;20051;-83
2023/05/28 09:47:49;;;;;;;5.30;2.05;;;;;;;35.37;17.58;101326.34;4897965;29;20079;-84
2023/05/28 09:50:16;;;;;;;5.28;2.30;;;;;;;34.88;18.66;101335.00;4914965;29;20124;-90
2023/05/28 09:52:47;;;;;;;3.05;2.10;;;;;;;34.56;17.76;101329.09;4893630;29;20511;-84
2023/05/28 09:55:20;;;;;;;4.20;2.30;;;;;;;34.39;19.11;101327.19;4897259;29;20044;-90
2023/05/28 09:58:10;;;;;;;2.70;1.90;;;;;;;33.19;18.77;101321.50;4894908;29;20040;-81
2023/05/28 10:00:47;;;;;;;3.55;2.53;;;;;;;31.57;20.31;101318.06;4888381;29;20071;-82
2023/05/28 10:03:49;;;;;;;3.45;2.55;;;;;;;30.41;20.91;101319.72;4895235;29;20056;-83
2023/05/28 10:06:24;;;;;;;4.00;2.25;;;;;;;30.32;21.60;101320.47;4892702;29;20051;-83
2023/05/28 10:08:55;;;;;;;2.95;2.45;;;;;;;30.99;21.07;101316.69;4893762;29;20072;-81
2023/05/28 10:11:28;;;;;;;2.10;1.90;;;;;;;30.72;21.90;101311.78;4893968;29;20091;-83
2023/05/28 10:13:55;;;;;;;6.70;1.92;;;;;;;31.27;21.84;101303.50;4902214;29;20406;-86
2023/05/28 10:16:25;;;;;;;3.20;2.35;;;;;;;31.11;21.36;101306.69;4895882;29;20056;-86
2023/05/28 10:18:52;;;;;;;2.15;1.85;;;;;;;30.72;21.71;101297.44;4898693;29;20096;-92
2023/05/28 10:21:20;;;;;;;1.95;1.48;;;;;;;30.21;21.50;101310.56;4900037;29;20411;-90
2023/05/28 10:23:50;;;;;;;2.58;1.80;;;;;;;29.93;22.48;101307.41;4897414;29;20091;-84
2023/05/28 10:26:21;;;;;;;4.32;2.22;;;;;;;29.43;22.55;101313.16;4910652;29;20714;-82
2023/05/28 10:28:59;;;;;;;4.75;2.33;;;;;;;30.03;22.28;101297.56;4905428;29;20051;-83
2023/05/28 10:31:25;;;;;;;5.63;2.22;;;;;;;31.13;21.43;101301.16;4898055;29;20066;-83
2023/05/28 10:33:55;;;;;;;3.55;2.45;;;;;;;32.06;20.82;101302.03;4895617;29;20040;-82
2023/05/28 10:36:22;;;;;;;2.95;2.10;;;;;;;33.32;20.22;101304.94;4899213;29;20050;-84
2023/05/28 10:38:54;;;;;;;3.55;2.40;;;;;;;34.36;19.13;101313.94;4894192;29;20119;-84
2023/05/28 10:41:25;;;;;;;;;;;;;;;33.99;18.16;101313.00;4916909;29;20042;-87
2023/05/28 10:43:52;;;;;;;5.07;2.20;;;;;;;33.93;18.52;101310.88;4897501;29;19927;-85
2023/05/28 10:46:27;;;;;;;2.47;2.28;;;;;;;32.96;20.02;101307.44;4887062;29;20051;-91
2023/05/28 10:49:08;;;;;;;2.47;1.85;;;;;;;32.73;19.77;101313.13;4927558;29;20028;-88
2023/05/28 10:52:00;;;;;;;3.65;2.10;;;;;;;31.70;20.63;101317.00;4917927;29;20232;-89
2023/05/28 10:54:32;;;;;;;2.22;1.73;;;;;;;30.92;21.52;101317.34;4917732;29;20056;-84
2023/05/28 10:57:18;;;;;;;2.05;1.90;;;;;;;30.12;22.26;101322.13;4914519;29;20116;-81
2023/05/28 11:00:10;;;;;;;2.95;2.42;;;;;;;29.31;23.58;101327.59;4902087;29;20044;-85
2023/05/28 11:02:37;;;;;;;5.07;2.22;;;;;;;28.52;24.30;101317.31;4898984;29;20447;-81
2023/05/28 11:05:05;;;;;;;2.53;2.33;;;;;;;28.35;24.51;101324.81;4914963;29;20067;-83
2023/05/28 11:07:35;;;;;;;5.20;2.22;;;;;;;28.41;24.36;101323.53;4904307;29;20111;-83
2023/05/28 11:10:04;;;;;;;3.00;1.90;;;;;;;27.92;24.90;101314.47;4884694;29;20396;-86
2023/05/28 11:12:33;;;;;;;2.90;2.33;;;;;;;28.43;24.44;101312.63;4900172;29;20404;-82
2023/05/28 11:15:00;;;;;;;3.00;1.98;;;;;;;28.85;23.99;101315.78;4902374;29;20173;-84
2023/05/28 11:17:27;;;;;;;2.67;2.10;;;;;;;29.68;23.46;101322.00;4881818;29;20052;-85
2023/05/28 11:19:56;;;;;;;2.75;2.17;;;;;;;29.86;22.93;101319.66;4896094;29;20491;-83
2023/05/28 11:22:36;;;;;;;6.80;2.53;;;;;;;30.42;22.62;101316.03;4896036;29;20035;-83
2023/05/28 11:25:11;;;;;;;4.95;2.50;;;;;;;31.13;21.92;101318.25;4900633;29;20475;-81